Hauptseite
METAR-TAF:

METAR-TAF

Flughäfen :

Caracas, Venezuela

Flughafen Caracas

Breite: 10-36N, Länge: 066-59W, Höhe: 43 m

Beobachtung

Neuester Wetterbericht von vor 13 Minuten, um 14:00 UTC
Windstille
Temperatur 27°C
Luftfeuchtigkeit 74%
Luftdruck 1009 hPa
Sichtweite 10 km oder mehr
Leicht bewölkt in der Höhe von 1600 ft

METAR: SVMI 201400Z 00000KT 9999 FEW016 27/22 Q1009

Zeit: 10:13 (14:13 UTC)

Prognose

Neuester Wetterbericht von vor 4 Stunden und 13 Minuten, um 10:00 UTC
Gültige Prognose vom 20 um 12 UTC bis 21 um 12 UTC
Wind kt aus Nord
Sichtweite 10 km oder mehr
Aufgelockert bewölkt in der Höhe von 1600 ft
Übergehend zu
vom 20 um 12 UTC bis 20 um 16 UTC
Wind 5 kt aus Ost/Nordost
Leicht bewölkt in der Höhe von 1600 ft

TAF: SVMI 201000Z 2012/2112 00000KT 9999 SCT016 TX31/19Z TN23/09Z BECMG 2012/2016 07005KT FEW016

Wetterbeobachtungen und Prognosen von mehr als 4000 Flughäfen (METAR und TAF Bericht).

Die verfügbaren Stationen werden durch gelbe und rote Markierungen auf der Karte dargestellt.

Führen Sie die Maus auf sie, um den Namen der Station zu sehen.

Darauf klicken, um die Beobachtung von Wetterbeobachtungen und Prognosen zu sehen.

Um die Karte zu ändern : klicken Sie auf den grünen Tasten mit einem schwarzen Kreuz Zum Vergrößern, auf den grünen Button mit einem Gedankenstrich zu verkleinern, oder auf die grünen Pfeile für benachbarte Karten.


METAR-TAF: